Time;durP1;ratioP1;P1;durP2;ratioP2;P2;SDS_P1;SDS_P2;PMS_P1;PMS_P2;Temp;Humidity;BMP_temperature;BMP_pressure;BME280_temperature;BME280_humidity;BME280_pressure;Samples;Min_cycle;Max_cycle;Signal;HPM_P1;HPM_P2
2022/04/29 00:00:41;;;;;;;;;;;17.20;53.90;;;;;;2038845;28;19907;-68
2022/04/29 00:01:40;;;;;;;;;;;17.20;53.90;;;;;;2038245;28;19903;-69
2022/04/29 00:02:40;;;;;;;;;;;17.20;53.90;;;;;;2038374;28;19999;-66
2022/04/29 00:03:38;;;;;;;;;;;17.20;54.00;;;;;;2037825;28;20321;-66
2022/04/29 00:04:37;;;;;;;;;;;17.20;53.90;;;;;;2045197;28;19914;-68
2022/04/29 00:05:36;;;;;;;;;;;17.20;53.90;;;;;;2045188;28;20274;-67
2022/04/29 00:06:35;;;;;;;;;;;17.20;53.90;;;;;;2038009;28;20476;-67
2022/04/29 00:07:33;;;;;;;;;;;17.20;53.90;;;;;;2037741;28;19947;-67
2022/04/29 00:08:31;;;;;;;;;;;17.20;54.00;;;;;;2037829;28;19949;-67
2022/04/29 00:09:30;;;;;;;;;;;17.20;54.00;;;;;;2038040;28;19904;-67
2022/04/29 00:10:28;;;;;;;;;;;17.10;53.90;;;;;;2037729;28;19919;-68
2022/04/29 00:11:28;;;;;;;;;;;17.20;54.00;;;;;;2037110;28;20339;-68
2022/04/29 00:12:26;;;;;;;;;;;17.10;54.00;;;;;;2037371;28;19912;-68
2022/04/29 00:13:25;;;;;;;;;;;17.20;54.00;;;;;;2037654;28;19908;-67
2022/04/29 00:14:23;;;;;;;;;;;17.10;54.00;;;;;;2037655;28;19908;-66
2022/04/29 00:15:22;;;;;;;;;;;17.10;54.00;;;;;;2037868;28;19904;-67
2022/04/29 00:16:21;;;;;;;;;;;17.20;54.00;;;;;;2037532;28;20332;-67
2022/04/29 00:17:19;;;;;;;;;;;17.10;54.00;;;;;;2037414;28;20262;-66
2022/04/29 00:18:18;;;;;;;;;;;17.10;54.00;;;;;;2037439;28;19910;-67
2022/04/29 00:19:17;;;;;;;;;;;17.20;54.10;;;;;;2037666;28;19918;-66
2022/04/29 00:20:15;;;;;;;;;;;17.20;54.10;;;;;;2037520;28;19922;-66
2022/04/29 00:21:14;;;;;;;;;;;17.10;54.00;;;;;;2037470;28;20352;-67
2022/04/29 00:22:13;;;;;;;;;;;17.10;54.00;;;;;;2037703;28;20016;-66
2022/04/29 00:23:11;;;;;;;;;;;17.20;54.10;;;;;;2037514;28;19954;-67
2022/04/29 00:24:10;;;;;;;;;;;17.20;54.10;;;;;;2036897;28;19931;-68
2022/04/29 00:25:08;;;;;;;;;;;17.10;54.00;;;;;;2036649;28;19904;-66
2022/04/29 00:26:07;;;;;;;;;;;17.10;54.00;;;;;;2037785;28;20358;-68
2022/04/29 00:27:05;;;;;;;;;;;17.20;54.10;;;;;;2044969;28;19960;-68
2022/04/29 00:28:04;;;;;;;;;;;17.10;54.10;;;;;;2045139;28;19953;-68
2022/04/29 00:29:03;;;;;;;;;;;17.10;54.10;;;;;;2038000;28;19996;-66
2022/04/29 00:30:02;;;;;;;;;;;17.10;54.10;;;;;;2037280;28;19955;-68
2022/04/29 00:31:01;;;;;;;;;;;17.10;54.10;;;;;;2037425;28;20339;-67
2022/04/29 00:31:59;;;;;;;;;;;17.10;54.10;;;;;;2037669;28;19904;-67
2022/04/29 00:32:58;;;;;;;;;;;17.10;54.10;;;;;;2037587;28;19904;-67
2022/04/29 00:33:57;;;;;;;;;;;17.10;54.10;;;;;;2037475;28;19904;-67
2022/04/29 00:34:55;;;;;;;;;;;17.10;54.10;;;;;;2037446;28;19994;-68
2022/04/29 00:35:54;;;;;;;;;;;17.10;54.10;;;;;;2037566;28;19946;-67
2022/04/29 00:36:52;;;;;;;;;;;17.00;54.10;;;;;;2037391;28;19929;-67
2022/04/29 00:37:52;;;;;;;;;;;17.10;54.10;;;;;;2037540;28;19973;-67
2022/04/29 00:38:50;;;;;;;;;;;16.90;53.90;;;;;;2037607;28;19904;-67
2022/04/29 00:39:49;;;;;;;;;;;17.10;54.10;;;;;;2037478;28;20411;-68
2022/04/29 00:40:48;;;;;;;;;;;17.10;54.10;;;;;;2037586;28;19996;-66
2022/04/29 00:41:47;;;;;;;;;;;17.10;54.10;;;;;;2037358;28;19994;-68
2022/04/29 00:42:46;;;;;;;;;;;17.10;54.10;;;;;;2037456;28;19908;-67
2022/04/29 00:43:45;;;;;;;;;;;17.10;54.20;;;;;;2037451;28;19904;-67
2022/04/29 00:44:45;;;;;;;;;;;17.10;54.20;;;;;;2037049;28;19911;-67
2022/04/29 00:45:44;;;;;;;;;;;17.10;54.20;;;;;;2037710;28;20347;-66
2022/04/29 00:46:43;;;;;;;;;;;17.10;54.20;;;;;;2037469;28;19904;-67
2022/04/29 00:47:42;;;;;;;;;;;17.10;54.20;;;;;;2037512;28;20267;-67
2022/04/29 00:48:41;;;;;;;;;;;17.10;54.20;;;;;;2037427;28;19984;-67
2022/04/29 00:49:39;;;;;;;;;;;17.10;54.20;;;;;;2037443;28;19908;-68
2022/04/29 00:50:41;;;;;;;;;;;17.10;54.10;;;;;;2037393;28;20362;-67
2022/04/29 00:51:41;;;;;;;;;;;17.10;54.20;;;;;;2037365;28;19908;-68
2022/04/29 00:52:43;;;;;;;;;;;17.10;54.20;;;;;;2037366;28;19908;-68
2022/04/29 00:53:42;;;;;;;;;;;17.10;54.20;;;;;;2037414;28;20381;-67
2022/04/29 00:54:41;;;;;;;;;;;17.00;54.10;;;;;;2037355;28;19904;-66
2022/04/29 00:55:40;;;;;;;;;;;17.10;54.20;;;;;;2037391;28;19944;-67
2022/04/29 00:56:40;;;;;;;;;;;17.00;54.10;;;;;;2037319;28;20251;-67
2022/04/29 00:57:44;;;;;;;;;;;17.00;54.10;;;;;;2036594;28;19904;-68
2022/04/29 00:58:46;;;;;;;;;;;17.10;54.20;;;;;;2036773;28;19904;-67
2022/04/29 00:59:51;;;;;;;;;;;17.00;54.20;;;;;;2037326;28;19904;-66
2022/04/29 01:00:50;;;;;;;;;;;17.10;54.30;;;;;;2037677;28;19942;-67
2022/04/29 01:01:50;;;;;;;;;;;17.00;54.20;;;;;;2037311;28;19904;-66
2022/04/29 01:02:50;;;;;;;;;;;17.00;54.20;;;;;;2037279;28;19961;-66
2022/04/29 01:03:51;;;;;;;;;;;17.00;54.30;;;;;;2037252;28;19998;-67
2022/04/29 01:05:05;;;;;;;;;;;17.10;54.30;;;;;;2037034;28;20367;-67
2022/04/29 01:06:03;;;;;;;;;;;17.10;54.30;;;;;;2037070;28;19919;-67
2022/04/29 01:07:02;;;;;;;;;;;17.00;54.20;;;;;;2037246;28;19904;-67
2022/04/29 01:08:01;;;;;;;;;;;17.00;54.20;;;;;;2037190;28;19957;-67
2022/04/29 01:08:59;;;;;;;;;;;17.00;54.20;;;;;;2044939;28;19911;-68
2022/04/29 01:09:58;;;;;;;;;;;17.10;54.40;;;;;;2044841;28;19903;-67
2022/04/29 01:10:57;;;;;;;;;;;17.00;54.30;;;;;;2037626;28;20411;-67
2022/04/29 01:11:56;;;;;;;;;;;17.00;54.30;;;;;;2037214;28;19908;-68
2022/04/29 01:12:58;;;;;;;;;;;17.00;54.30;;;;;;2037095;28;19904;-68
2022/04/29 01:13:58;;;;;;;;;;;17.00;54.20;;;;;;2037286;28;19904;-68
2022/04/29 01:14:58;;;;;;;;;;;17.00;54.30;;;;;;2037114;28;19916;-67
2022/04/29 01:15:57;;;;;;;;;;;17.00;54.30;;;;;;2037316;28;19904;-68
2022/04/29 01:16:58;;;;;;;;;;;17.00;54.30;;;;;;2037336;28;19962;-68
2022/04/29 01:17:59;;;;;;;;;;;16.90;54.20;;;;;;2037153;28;19904;-67
2022/04/29 01:18:58;;;;;;;;;;;17.00;54.90;;;;;;2037309;28;19904;-67
2022/04/29 01:20:07;;;;;;;;;;;17.00;54.30;;;;;;2037278;28;20248;-67
2022/04/29 01:21:06;;;;;;;;;;;17.00;54.30;;;;;;2037401;28;19908;-67
2022/04/29 01:22:05;;;;;;;;;;;17.00;54.30;;;;;;2037120;28;19904;-67
2022/04/29 01:23:04;;;;;;;;;;;17.10;54.40;;;;;;2037208;28;19912;-67
2022/04/29 01:24:02;;;;;;;;;;;17.00;54.40;;;;;;2036912;28;19939;-67
2022/04/29 01:25:02;;;;;;;;;;;17.00;54.30;;;;;;2036330;28;19915;-68
2022/04/29 01:26:02;;;;;;;;;;;17.00;54.40;;;;;;2036497;28;20022;-67
2022/04/29 01:27:00;;;;;;;;;;;17.00;54.40;;;;;;2037008;28;19904;-67
2022/04/29 01:27:59;;;;;;;;;;;17.00;54.40;;;;;;2037128;28;19908;-67
2022/04/29 01:28:57;;;;;;;;;;;17.00;54.40;;;;;;2037167;28;19904;-67
2022/04/29 01:30:09;;;;;;;;;;;17.00;54.40;;;;;;2036955;28;19908;-67
2022/04/29 01:31:10;;;;;;;;;;;17.00;54.40;;;;;;2037172;28;19974;-67
2022/04/29 01:32:09;;;;;;;;;;;17.00;54.40;;;;;;2037163;28;19916;-67
2022/04/29 01:33:09;;;;;;;;;;;17.00;54.40;;;;;;2036982;28;19910;-67
2022/04/29 01:34:07;;;;;;;;;;;17.00;54.40;;;;;;2037069;28;19994;-67
2022/04/29 01:35:07;;;;;;;;;;;17.00;54.40;;;;;;2037221;28;19908;-68
2022/04/29 01:36:05;;;;;;;;;;;17.00;54.40;;;;;;2036886;28;20000;-66
2022/04/29 01:37:04;;;;;;;;;;;17.00;54.40;;;;;;2036915;28;19903;-66
2022/04/29 01:38:02;;;;;;;;;;;17.00;54.40;;;;;;2037054;28;19904;-67
2022/04/29 01:39:01;;;;;;;;;;;17.00;54.50;;;;;;2036965;28;19911;-67
2022/04/29 01:40:00;;;;;;;;;;;17.00;55.10;;;;;;2037031;28;20284;-67
2022/04/29 01:40:58;;;;;;;;;;;16.90;54.40;;;;;;2037117;28;19904;-67
2022/04/29 01:41:57;;;;;;;;;;;16.90;54.40;;;;;;2037016;28;19911;-67
2022/04/29 01:42:55;;;;;;;;;;;16.90;54.40;;;;;;2036903;28;19957;-67
2022/04/29 01:43:54;;;;;;;;;;;17.00;54.50;;;;;;2037022;28;19904;-66
2022/04/29 01:44:53;;;;;;;;;;;16.90;54.50;;;;;;2037067;28;19904;-67
2022/04/29 01:45:54;;;;;;;;;;;16.90;54.50;;;;;;2036996;28;19904;-67
2022/04/29 01:46:52;;;;;;;;;;;17.00;54.60;;;;;;2036943;28;19960;-67
2022/04/29 01:47:50;;;;;;;;;;;16.90;54.50;;;;;;2036782;28;20351;-67
2022/04/29 01:48:49;;;;;;;;;;;16.90;54.60;;;;;;2036827;28;20014;-67
2022/04/29 01:49:47;;;;;;;;;;;17.00;54.60;;;;;;2036862;28;19904;-67
2022/04/29 01:50:46;;;;;;;;;;;16.90;54.60;;;;;;2037022;28;19970;-67
2022/04/29 01:51:45;;;;;;;;;;;16.90;54.50;;;;;;2044604;28;19963;-67
2022/04/29 01:52:43;;;;;;;;;;;16.90;54.50;;;;;;2044492;28;19958;-67
2022/04/29 01:53:42;;;;;;;;;;;16.90;54.60;;;;;;2037381;28;19904;-67
2022/04/29 01:54:40;;;;;;;;;;;16.90;54.60;;;;;;2036979;28;19979;-67
2022/04/29 01:55:38;;;;;;;;;;;16.90;54.60;;;;;;2037020;28;20336;-66
2022/04/29 01:56:38;;;;;;;;;;;16.90;54.60;;;;;;2036927;28;20370;-66
2022/04/29 01:57:36;;;;;;;;;;;16.90;54.60;;;;;;2037012;28;19927;-66
2022/04/29 01:58:35;;;;;;;;;;;16.70;54.50;;;;;;2036563;28;19904;-67
2022/04/29 01:59:33;;;;;;;;;;;16.90;54.70;;;;;;2036275;28;19904;-67
2022/04/29 02:00:33;;;;;;;;;;;16.90;54.70;;;;;;2036742;28;19904;-67
2022/04/29 02:01:32;;;;;;;;;;;16.90;54.70;;;;;;2036896;28;19911;-67
2022/04/29 02:02:32;;;;;;;;;;;16.90;54.70;;;;;;2036806;28;19912;-67
2022/04/29 02:03:30;;;;;;;;;;;16.90;54.70;;;;;;2037033;28;19904;-67
2022/04/29 02:04:29;;;;;;;;;;;16.90;54.70;;;;;;2036290;28;19915;-67
2022/04/29 02:05:27;;;;;;;;;;;16.90;54.70;;;;;;2036334;28;19904;-66
2022/04/29 02:06:26;;;;;;;;;;;16.90;54.70;;;;;;2036695;28;20020;-67
2022/04/29 02:07:24;;;;;;;;;;;16.90;54.70;;;;;;2037014;28;20267;-67
2022/04/29 02:08:23;;;;;;;;;;;16.90;54.70;;;;;;2036909;28;19978;-67
2022/04/29 02:09:21;;;;;;;;;;;16.90;54.70;;;;;;2044293;28;19915;-67
2022/04/29 02:10:20;;;;;;;;;;;16.90;54.70;;;;;;2044383;28;19908;-67
2022/04/29 02:11:18;;;;;;;;;;;16.80;54.60;;;;;;2037510;28;19931;-67
2022/04/29 02:12:17;;;;;;;;;;;16.90;54.70;;;;;;2036806;28;19958;-67
2022/04/29 02:13:15;;;;;;;;;;;16.90;54.70;;;;;;2036742;28;20335;-66
2022/04/29 02:14:17;;;;;;;;;;;16.90;54.70;;;;;;2036828;28;20309;-66
2022/04/29 02:15:17;;;;;;;;;;;16.90;54.70;;;;;;2036863;28;19908;-66
2022/04/29 02:16:15;;;;;;;;;;;16.90;54.70;;;;;;2036706;28;19950;-66
2022/04/29 02:17:15;;;;;;;;;;;16.90;54.80;;;;;;2037091;28;20332;-66
2022/04/29 02:18:13;;;;;;;;;;;16.80;54.70;;;;;;2046157;28;19954;-67
2022/04/29 02:19:12;;;;;;;;;;;16.90;54.70;;;;;;2046109;28;20278;-67
2022/04/29 02:20:10;;;;;;;;;;;16.90;54.80;;;;;;2039152;28;19904;-66
2022/04/29 02:21:09;;;;;;;;;;;16.80;54.70;;;;;;2038670;28;19908;-67
2022/04/29 02:22:08;;;;;;;;;;;16.80;54.70;;;;;;2038472;28;20011;-67
2022/04/29 02:23:06;;;;;;;;;;;16.80;54.70;;;;;;2038389;28;20252;-66
2022/04/29 02:24:05;;;;;;;;;;;16.80;54.70;;;;;;2038553;28;19910;-67
2022/04/29 02:25:04;;;;;;;;;;;16.80;54.70;;;;;;2038598;28;19904;-66
2022/04/29 02:26:03;;;;;;;;;;;16.80;54.70;;;;;;2038435;28;19904;-66
2022/04/29 02:27:03;;;;;;;;;;;16.80;54.80;;;;;;2038373;28;20244;-66
2022/04/29 02:28:01;;;;;;;;;;;16.90;54.80;;;;;;2046055;28;19961;-66
2022/04/29 02:28:59;;;;;;;;;;;16.90;54.90;;;;;;2046123;28;19952;-66
2022/04/29 02:29:58;;;;;;;;;;;16.90;54.80;;;;;;2038869;28;19904;-68
2022/04/29 02:30:57;;;;;;;;;;;16.80;54.80;;;;;;2038488;28;19910;-66
2022/04/29 02:31:59;;;;;;;;;;;16.80;54.70;;;;;;2038538;28;19908;-67
2022/04/29 02:32:57;;;;;;;;;;;16.80;54.70;;;;;;2038661;28;19904;-66
2022/04/29 02:33:57;;;;;;;;;;;16.90;54.80;;;;;;2038337;28;20330;-66
2022/04/29 02:34:55;;;;;;;;;;;16.90;54.80;;;;;;2038343;28;19904;-67
2022/04/29 02:35:54;;;;;;;;;;;16.90;54.80;;;;;;2045943;28;19957;-67
2022/04/29 02:36:53;;;;;;;;;;;16.90;54.80;;;;;;2046111;28;20279;-67
2022/04/29 02:37:51;;;;;;;;;;;16.90;54.80;;;;;;2038751;28;19903;-67
2022/04/29 02:38:50;;;;;;;;;;;16.90;54.90;;;;;;2038374;28;19908;-68
2022/04/29 02:39:48;;;;;;;;;;;16.80;54.80;;;;;;2043332;28;20207;-66
2022/04/29 02:40:50;;;;;;;;;;;16.80;54.80;;;;;;2046738;28;19930;-66
2022/04/29 02:41:49;;;;;;;;;;;16.80;54.80;;;;;;2047665;28;19892;-66
2022/04/29 02:42:47;;;;;;;;;;;16.80;54.80;;;;;;2047210;28;19915;-66
2022/04/29 02:43:45;;;;;;;;;;;16.80;54.80;;;;;;2040900;28;19951;-66
2022/04/29 02:44:44;;;;;;;;;;;16.80;54.80;;;;;;2039094;28;19904;-67
2022/04/29 02:45:43;;;;;;;;;;;16.80;54.80;;;;;;2038802;28;20374;-67
2022/04/29 02:47:59;;;;;;;;;;;16.80;54.80;;;;;;2038578;28;19974;-67
2022/04/29 02:48:58;;;;;;;;;;;16.80;54.80;;;;;;2038694;28;20258;-67
2022/04/29 02:49:57;;;;;;;;;;;16.80;54.80;;;;;;2045977;28;19907;-66
2022/04/29 02:50:57;;;;;;;;;;;16.80;54.90;;;;;;2045896;28;19911;-66
2022/04/29 02:51:55;;;;;;;;;;;16.80;54.90;;;;;;2038826;28;19908;-67
2022/04/29 02:52:54;;;;;;;;;;;16.80;54.90;;;;;;2038262;28;19951;-68
2022/04/29 02:53:53;;;;;;;;;;;16.80;54.90;;;;;;2038441;28;20351;-67
2022/04/29 02:54:51;;;;;;;;;;;16.80;54.90;;;;;;2038311;28;19908;-66
2022/04/29 02:55:51;;;;;;;;;;;16.80;54.90;;;;;;2038472;28;19956;-67
2022/04/29 02:56:50;;;;;;;;;;;16.80;54.80;;;;;;2038161;28;19914;-67
2022/04/29 02:57:48;;;;;;;;;;;16.80;54.80;;;;;;2038141;28;19980;-66
2022/04/29 02:58:47;;;;;;;;;;;16.80;54.90;;;;;;2038191;28;19904;-67
2022/04/29 02:59:45;;;;;;;;;;;16.80;54.90;;;;;;2038179;28;20271;-66
2022/04/29 03:00:43;;;;;;;;;;;16.80;54.80;;;;;;2038269;28;19926;-66
2022/04/29 03:01:44;;;;;;;;;;;16.80;54.90;;;;;;2038302;28;19904;-68
2022/04/29 03:02:43;;;;;;;;;;;16.80;54.90;;;;;;2038060;28;20003;-67
2022/04/29 03:03:42;;;;;;;;;;;16.80;54.90;;;;;;2038253;28;19912;-67
2022/04/29 03:04:40;;;;;;;;;;;16.80;54.90;;;;;;2038204;28;19943;-66
2022/04/29 03:05:39;;;;;;;;;;;16.80;54.90;;;;;;2038092;28;19908;-67
2022/04/29 03:06:38;;;;;;;;;;;16.80;54.90;;;;;;2038257;28;19904;-66
2022/04/29 03:07:36;;;;;;;;;;;16.80;54.90;;;;;;2038270;28;19911;-66
2022/04/29 03:08:36;;;;;;;;;;;16.80;55.00;;;;;;2038296;28;19905;-67
2022/04/29 03:09:34;;;;;;;;;;;16.80;54.90;;;;;;2038153;28;20264;-67
2022/04/29 03:10:34;;;;;;;;;;;16.80;55.00;;;;;;2038174;28;19943;-66
2022/04/29 03:11:32;;;;;;;;;;;16.80;54.90;;;;;;2038246;28;19911;-66
2022/04/29 03:12:31;;;;;;;;;;;16.80;55.00;;;;;;2038031;28;19911;-67
2022/04/29 03:13:29;;;;;;;;;;;16.80;54.90;;;;;;2038154;28;19914;-67
2022/04/29 03:14:28;;;;;;;;;;;16.80;55.00;;;;;;2038213;28;19910;-67
2022/04/29 03:15:27;;;;;;;;;;;16.80;55.00;;;;;;2038218;28;19914;-67
2022/04/29 03:16:26;;;;;;;;;;;16.80;55.00;;;;;;2038123;28;19908;-68
2022/04/29 03:18:42;;;;;;;;;;;16.80;55.00;;;;;;2038194;28;20362;-67
2022/04/29 03:19:40;;;;;;;;;;;16.80;55.00;;;;;;2038049;28;19904;-67
2022/04/29 03:20:39;;;;;;;;;;;16.80;55.00;;;;;;2037365;28;20347;-68
2022/04/29 03:21:38;;;;;;;;;;;16.80;55.00;;;;;;2037488;28;19904;-67
2022/04/29 03:22:37;;;;;;;;;;;16.70;54.90;;;;;;2037904;28;20271;-67
2022/04/29 03:23:35;;;;;;;;;;;16.80;55.00;;;;;;2037933;28;19904;-67
2022/04/29 03:24:35;;;;;;;;;;;16.80;55.00;;;;;;2038049;28;19904;-67
2022/04/29 03:25:35;;;;;;;;;;;16.70;54.80;;;;;;2037956;28;20343;-67
2022/04/29 03:26:35;;;;;;;;;;;16.80;54.90;;;;;;2038019;28;20267;-67
2022/04/29 03:27:34;;;;;;;;;;;16.80;55.00;;;;;;2037940;28;19957;-67
2022/04/29 03:28:34;;;;;;;;;;;16.70;54.90;;;;;;2037612;28;19988;-67
2022/04/29 03:29:32;;;;;;;;;;;16.80;55.00;;;;;;2038137;28;19904;-67
2022/04/29 03:30:32;;;;;;;;;;;16.70;54.90;;;;;;2037950;28;20367;-67
2022/04/29 03:31:31;;;;;;;;;;;16.80;55.00;;;;;;2037950;28;19974;-67
2022/04/29 03:32:29;;;;;;;;;;;16.70;54.90;;;;;;2037956;28;19908;-67
2022/04/29 03:33:28;;;;;;;;;;;16.70;54.90;;;;;;2038071;28;19919;-67
2022/04/29 03:34:26;;;;;;;;;;;16.80;55.00;;;;;;2037914;28;19914;-67
2022/04/29 03:35:25;;;;;;;;;;;16.70;54.90;;;;;;2037811;28;20259;-67
2022/04/29 03:36:24;;;;;;;;;;;16.80;55.00;;;;;;2037944;28;19904;-67
2022/04/29 03:37:22;;;;;;;;;;;16.70;54.90;;;;;;2037944;28;19946;-67
2022/04/29 03:38:21;;;;;;;;;;;16.70;55.00;;;;;;2037279;28;19927;-67
2022/04/29 03:39:19;;;;;;;;;;;16.70;55.00;;;;;;2037314;28;19920;-67
2022/04/29 03:40:21;;;;;;;;;;;16.70;55.00;;;;;;2037906;28;19904;-66
2022/04/29 03:41:20;;;;;;;;;;;16.80;55.10;;;;;;2038032;28;19990;-67
2022/04/29 03:42:18;;;;;;;;;;;16.80;55.10;;;;;;2037961;28;20331;-66
2022/04/29 03:43:17;;;;;;;;;;;16.70;55.00;;;;;;2037952;28;19970;-66
2022/04/29 03:44:15;;;;;;;;;;;16.70;55.00;;;;;;2037966;28;20359;-66
2022/04/29 03:45:14;;;;;;;;;;;16.70;54.90;;;;;;2037977;28;19904;-67
2022/04/29 03:46:12;;;;;;;;;;;16.80;55.00;;;;;;2037908;28;19904;-67
2022/04/29 03:47:11;;;;;;;;;;;16.70;54.90;;;;;;2037555;28;20367;-67
2022/04/29 03:48:09;;;;;;;;;;;16.80;55.00;;;;;;2037854;28;19914;-67
2022/04/29 03:50:27;;;;;;;;;;;16.70;54.90;;;;;;2037885;28;19907;-65
2022/04/29 03:51:26;;;;;;;;;;;16.70;54.90;;;;;;2037845;28;19904;-66
2022/04/29 03:52:25;;;;;;;;;;;16.70;55.00;;;;;;2038111;28;19939;-66
2022/04/29 03:53:23;;;;;;;;;;;16.80;55.10;;;;;;2037708;28;19996;-65
2022/04/29 03:54:22;;;;;;;;;;;16.70;55.00;;;;;;2037837;28;19970;-66
2022/04/29 03:55:21;;;;;;;;;;;16.70;55.00;;;;;;2037736;28;20304;-66
2022/04/29 03:56:20;;;;;;;;;;;16.70;55.00;;;;;;2037738;28;20384;-67
2022/04/29 03:57:18;;;;;;;;;;;16.70;55.10;;;;;;2037905;28;19908;-67
2022/04/29 03:58:16;;;;;;;;;;;16.70;55.00;;;;;;2037776;28;19995;-67
2022/04/29 03:59:15;;;;;;;;;;;16.70;55.00;;;;;;2037630;28;19960;-67
2022/04/29 04:00:14;;;;;;;;;;;16.70;55.00;;;;;;2037736;28;19904;-67
2022/04/29 04:01:13;;;;;;;;;;;16.70;55.00;;;;;;2037723;28;19904;-67
2022/04/29 04:02:11;;;;;;;;;;;16.70;55.00;;;;;;2037716;28;19904;-67
2022/04/29 04:03:10;;;;;;;;;;;16.70;55.00;;;;;;2037651;28;19946;-67
2022/04/29 04:04:08;;;;;;;;;;;16.70;55.00;;;;;;2037709;28;19911;-67
2022/04/29 04:05:08;;;;;;;;;;;16.70;55.00;;;;;;2037697;28;19953;-67
2022/04/29 04:07:23;;;;;;;;;;;16.70;55.00;;;;;;2037998;28;19908;-67
2022/04/29 04:08:22;;;;;;;;;;;16.70;55.10;;;;;;2037773;28;19946;-67
2022/04/29 04:09:21;;;;;;;;;;;16.70;55.10;;;;;;2037662;28;19926;-67
2022/04/29 04:10:20;;;;;;;;;;;16.70;55.00;;;;;;2037662;28;19908;-67
2022/04/29 04:11:18;;;;;;;;;;;16.70;55.00;;;;;;2036794;28;20275;-67
2022/04/29 04:12:18;;;;;;;;;;;16.70;55.00;;;;;;2037176;28;19911;-67
2022/04/29 04:13:16;;;;;;;;;;;16.70;55.10;;;;;;2037931;28;19904;-67
2022/04/29 04:14:16;;;;;;;;;;;16.70;55.10;;;;;;2037669;28;20426;-67
2022/04/29 04:15:15;;;;;;;;;;;16.70;55.10;;;;;;2037585;28;19904;-67
2022/04/29 04:16:14;;;;;;;;;;;16.70;55.20;;;;;;2037493;28;20004;-67
2022/04/29 04:17:12;;;;;;;;;;;16.70;55.10;;;;;;2037714;28;19949;-67
2022/04/29 04:18:11;;;;;;;;;;;16.70;55.10;;;;;;2037535;28;20248;-67
2022/04/29 04:19:09;;;;;;;;;;;16.70;55.10;;;;;;2037741;28;19915;-67
2022/04/29 04:20:09;;;;;;;;;;;16.70;55.10;;;;;;2037620;28;19904;-67
2022/04/29 04:21:07;;;;;;;;;;;16.70;55.10;;;;;;2037790;28;19904;-67
2022/04/29 04:22:06;;;;;;;;;;;16.70;55.10;;;;;;2037430;28;20245;-66
2022/04/29 04:23:04;;;;;;;;;;;16.70;55.10;;;;;;2037514;28;19954;-66
2022/04/29 04:24:03;;;;;;;;;;;16.70;55.80;;;;;;2037670;28;19943;-67
2022/04/29 04:25:04;;;;;;;;;;;16.70;55.10;;;;;;2037676;28;19903;-66
2022/04/29 04:26:03;;;;;;;;;;;16.70;55.10;;;;;;2037530;28;19962;-67
2022/04/29 04:27:01;;;;;;;;;;;16.70;55.10;;;;;;2037508;28;19903;-66
2022/04/29 04:27:59;;;;;;;;;;;16.70;55.10;;;;;;2037509;28;19904;-66
2022/04/29 04:28:58;;;;;;;;;;;16.70;55.20;;;;;;2037524;28;19904;-66
2022/04/29 04:29:57;;;;;;;;;;;16.70;55.20;;;;;;2037521;28;19910;-66
2022/04/29 04:30:56;;;;;;;;;;;16.70;55.20;;;;;;2037479;28;19904;-66
2022/04/29 04:31:54;;;;;;;;;;;16.70;55.10;;;;;;2037664;28;20279;-66
2022/04/29 04:32:53;;;;;;;;;;;16.70;55.10;;;;;;2037390;28;19962;-66
2022/04/29 04:33:51;;;;;;;;;;;16.70;55.20;;;;;;2037532;28;20019;-67
2022/04/29 04:34:53;;;;;;;;;;;16.70;55.10;;;;;;2044995;28;20335;-66
2022/04/29 04:35:51;;;;;;;;;;;16.70;55.10;;;;;;2045229;28;19952;-66
2022/04/29 04:36:53;;;;;;;;;;;16.70;55.20;;;;;;2037743;28;19998;-66
2022/04/29 04:37:51;;;;;;;;;;;16.70;55.10;;;;;;2037560;28;20323;-66
2022/04/29 04:38:49;;;;;;;;;;;16.70;55.10;;;;;;2037509;28;20074;-66
2022/04/29 04:39:49;;;;;;;;;;;16.70;55.10;;;;;;2037167;28;19904;-66
2022/04/29 04:40:47;;;;;;;;;;;16.70;55.10;;;;;;2037190;28;20449;-67
2022/04/29 04:41:46;;;;;;;;;;;16.70;55.10;;;;;;2037620;28;19904;-67
2022/04/29 04:42:44;;;;;;;;;;;16.70;55.10;;;;;;2037626;28;19911;-67
2022/04/29 04:43:45;;;;;;;;;;;16.70;55.10;;;;;;2045275;28;19957;-67
2022/04/29 04:44:46;;;;;;;;;;;16.70;55.10;;;;;;2045266;28;19903;-67
2022/04/29 04:45:46;;;;;;;;;;;16.70;55.20;;;;;;2037544;28;19911;-67
2022/04/29 04:46:44;;;;;;;;;;;16.70;55.10;;;;;;2037816;28;19911;-67
2022/04/29 04:47:43;;;;;;;;;;;16.70;55.10;;;;;;2037689;28;19904;-67
2022/04/29 04:48:41;;;;;;;;;;;16.70;55.10;;;;;;2037866;28;19904;-67
2022/04/29 04:49:41;;;;;;;;;;;16.70;55.10;;;;;;2037851;28;19904;-67
2022/04/29 04:50:40;;;;;;;;;;;16.70;55.10;;;;;;2037685;28;19916;-67
2022/04/29 04:51:38;;;;;;;;;;;16.60;55.00;;;;;;2037949;28;19903;-67
2022/04/29 04:52:39;;;;;;;;;;;16.70;55.20;;;;;;2041857;28;19904;-67
2022/04/29 04:53:37;;;;;;;;;;;16.70;55.00;;;;;;2047358;28;19912;-66
2022/04/29 04:54:36;;;;;;;;;;;16.70;55.00;;;;;;2047303;28;19947;-67
2022/04/29 04:55:38;;;;;;;;;;;16.70;55.00;;;;;;2046964;28;19914;-66
2022/04/29 04:56:37;;;;;;;;;;;16.70;55.10;;;;;;2042092;28;19909;-66
2022/04/29 04:57:35;;;;;;;;;;;16.70;55.10;;;;;;2037272;28;19965;-67
2022/04/29 04:58:34;;;;;;;;;;;16.70;55.10;;;;;;2037439;28;19904;-67
2022/04/29 04:59:34;;;;;;;;;;;16.70;55.10;;;;;;2037478;28;19995;-67
2022/04/29 05:00:32;;;;;;;;;;;16.70;55.10;;;;;;2037180;28;19904;-66
2022/04/29 05:01:31;;;;;;;;;;;16.70;55.10;;;;;;2037501;28;19904;-67
2022/04/29 05:02:29;;;;;;;;;;;16.70;55.10;;;;;;2037434;28;20362;-67
2022/04/29 05:03:29;;;;;;;;;;;16.70;55.10;;;;;;2044922;28;19912;-67
2022/04/29 05:04:28;;;;;;;;;;;16.70;55.10;;;;;;2044919;28;19983;-66
2022/04/29 05:05:26;;;;;;;;;;;16.70;55.10;;;;;;2037655;28;19915;-66
2022/04/29 05:06:24;;;;;;;;;;;16.70;55.10;;;;;;2037185;28;20283;-67
2022/04/29 05:07:23;;;;;;;;;;;16.70;55.10;;;;;;2037330;28;19985;-66
2022/04/29 05:08:22;;;;;;;;;;;16.70;55.10;;;;;;2037536;28;19994;-66
2022/04/29 05:09:20;;;;;;;;;;;16.70;55.20;;;;;;2044703;28;19908;-67
2022/04/29 05:10:20;;;;;;;;;;;16.70;55.10;;;;;;2036585;28;19915;-67
2022/04/29 05:11:18;;;;;;;;;;;16.70;55.10;;;;;;2036715;28;20329;-67
2022/04/29 05:12:17;;;;;;;;;;;16.70;55.10;;;;;;2037319;28;19904;-67
2022/04/29 05:13:15;;;;;;;;;;;16.70;55.70;;;;;;2037335;28;19904;-67
2022/04/29 05:14:14;;;;;;;;;;;16.70;55.10;;;;;;2037120;28;19904;-67
2022/04/29 05:15:14;;;;;;;;;;;16.70;55.00;;;;;;2037113;28;20305;-67
2022/04/29 05:16:12;;;;;;;;;;;16.70;55.10;;;;;;2037284;28;19911;-67
2022/04/29 05:17:10;;;;;;;;;;;16.70;55.00;;;;;;2037117;28;20385;-66
2022/04/29 05:18:09;;;;;;;;;;;16.70;55.10;;;;;;2036618;28;19930;-67
2022/04/29 05:19:08;;;;;;;;;;;16.80;55.10;;;;;;2028567;28;19947;-66
2022/04/29 05:20:09;;;;;;;;;;;16.70;55.00;;;;;;2035819;28;19990;-67
2022/04/29 05:21:07;;;;;;;;;;;16.80;55.10;;;;;;2037275;28;19904;-67
2022/04/29 05:22:06;;;;;;;;;;;16.70;55.00;;;;;;2036579;28;20014;-66
2022/04/29 05:23:04;;;;;;;;;;;16.70;55.00;;;;;;2036576;28;19908;-66
2022/04/29 05:24:03;;;;;;;;;;;16.70;55.10;;;;;;2037168;28;20015;-67
2022/04/29 05:25:03;;;;;;;;;;;16.70;55.10;;;;;;2037371;28;19904;-67
2022/04/29 05:26:02;;;;;;;;;;;16.70;55.00;;;;;;2037408;28;19908;-67
2022/04/29 05:27:00;;;;;;;;;;;16.70;55.10;;;;;;2037067;28;20250;-67
2022/04/29 05:28:02;;;;;;;;;;;16.70;55.10;;;;;;2040220;28;19900;-67
2022/04/29 05:29:00;;;;;;;;;;;16.70;55.10;;;;;;2044473;28;19908;-67
2022/04/29 05:30:00;;;;;;;;;;;16.70;55.00;;;;;;2043143;28;19999;-66
2022/04/29 05:30:59;;;;;;;;;;;16.70;55.00;;;;;;2041984;28;19904;-66
2022/04/29 05:31:58;;;;;;;;;;;16.80;55.10;;;;;;2043060;28;19958;-68
2022/04/29 05:32:57;;;;;;;;;;;16.70;55.00;;;;;;2041949;28;20283;-66
2022/04/29 05:33:56;;;;;;;;;;;16.70;55.00;;;;;;2042256;28;19911;-66
2022/04/29 05:34:55;;;;;;;;;;;16.70;55.00;;;;;;2038805;28;19904;-66
2022/04/29 05:35:54;;;;;;;;;;;16.70;55.00;;;;;;2037849;28;20370;-67
2022/04/29 05:36:52;;;;;;;;;;;16.80;55.10;;;;;;2037636;28;19904;-67
2022/04/29 05:37:51;;;;;;;;;;;16.70;55.00;;;;;;2037880;28;20327;-66
2022/04/29 05:42:44;;;;;;;;;;;16.80;55.10;;;;;;2037367;28;19908;-66
2022/04/29 05:43:42;;;;;;;;;;;16.80;55.10;;;;;;2037949;28;19953;-67
2022/04/29 05:44:41;;;;;;;;;;;16.80;55.10;;;;;;2037571;28;19940;-67
2022/04/29 05:45:41;;;;;;;;;;;16.80;55.10;;;;;;2037416;28;19908;-67
2022/04/29 05:46:39;;;;;;;;;;;16.90;55.70;;;;;;2037305;28;19904;-67
2022/04/29 05:47:38;;;;;;;;;;;16.90;55.10;;;;;;2037361;28;20248;-66
2022/04/29 05:48:36;;;;;;;;;;;16.90;55.10;;;;;;2037461;28;19912;-66
2022/04/29 05:49:35;;;;;;;;;;;16.90;55.10;;;;;;2037236;28;19904;-66
2022/04/29 05:50:33;;;;;;;;;;;16.90;55.10;;;;;;2037049;28;19908;-68
2022/04/29 05:51:32;;;;;;;;;;;16.90;55.10;;;;;;2036682;28;20368;-67
2022/04/29 05:52:30;;;;;;;;;;;16.90;55.10;;;;;;2036976;28;20342;-66